createdAt,value
2017-10-15T00:00:02.829Z,8
2017-10-15T00:15:02.913Z,7.8
2017-10-15T00:30:03.122Z,7.8
2017-10-15T00:45:03.069Z,7.4
2017-10-15T01:00:04.575Z,7.7
2017-10-15T01:15:04.542Z,7.4
2017-10-15T01:30:04.358Z,7.6
2017-10-15T01:45:03.413Z,7.6
2017-10-15T02:00:04.508Z,7.6
2017-10-15T02:15:03.858Z,7.6
2017-10-15T02:30:05.825Z,7.4
2017-10-15T02:45:05.871Z,7.4
2017-10-15T03:00:06.382Z,7.4
2017-10-15T03:15:03.599Z,7.3
2017-10-15T03:30:04.840Z,7.4
2017-10-15T03:45:04.850Z,7.2
2017-10-15T04:00:03.278Z,7.1
2017-10-15T04:15:03.994Z,7.3
2017-10-15T04:30:05.930Z,7.2
2017-10-15T04:45:05.865Z,7.2
2017-10-15T05:00:05.983Z,7.2
2017-10-15T05:15:04.406Z,7.2
2017-10-15T05:30:04.852Z,6.9
2017-10-15T05:45:03.667Z,7.3
2017-10-15T06:00:09.820Z,7.2
2017-10-15T06:15:05.168Z,7.1
2017-10-15T06:30:05.449Z,7.4
2017-10-15T06:45:03.943Z,7.3
2017-10-15T07:00:05.530Z,7.7
2017-10-15T07:15:04.313Z,8
2017-10-15T07:30:04.390Z,8.2
2017-10-15T07:45:03.747Z,8.3
2017-10-15T08:00:03.441Z,8.4
2017-10-15T08:15:05.517Z,8.7
2017-10-15T08:30:05.227Z,8.8
2017-10-15T08:45:04.295Z,9.4
2017-10-15T09:00:04.746Z,9.6
2017-10-15T09:15:04.127Z,10.9
2017-10-15T09:30:05.533Z,11.7
2017-10-15T09:45:05.257Z,12.9
2017-10-15T10:00:08.782Z,13.7
2017-10-15T10:15:04.079Z,14.8
2017-10-15T10:30:05.092Z,15.6
2017-10-15T10:45:03.337Z,16.9
2017-10-15T11:00:03.485Z,17.2
2017-10-15T11:15:03.794Z,17.7
2017-10-15T11:30:04.823Z,17.4
2017-10-15T11:45:05.257Z,18.5
2017-10-15T12:00:03.993Z,18.4
2017-10-15T12:15:03.888Z,18.8
2017-10-15T12:30:04.260Z,18.9
2017-10-15T12:45:05.176Z,20.1
2017-10-15T13:00:03.826Z,20.7
2017-10-15T13:15:04.586Z,20.8
2017-10-15T13:30:04.792Z,20.8
2017-10-15T13:45:04.085Z,21.1
2017-10-15T14:00:06.339Z,21.1
2017-10-15T14:15:06.128Z,20.8
2017-10-15T14:30:10.299Z,20.8
2017-10-15T14:45:03.218Z,20.9
2017-10-15T15:00:03.558Z,20.6
2017-10-15T15:15:04.139Z,20.2
2017-10-15T15:30:06.035Z,19.7
2017-10-15T15:45:04.676Z,18.8
2017-10-15T16:00:03.990Z,17.4
2017-10-15T16:15:02.941Z,16.4
2017-10-15T16:30:03.213Z,15.6
2017-10-15T16:45:03.713Z,14.8
2017-10-15T17:00:05.448Z,14.3
2017-10-15T17:15:04.403Z,13.7
2017-10-15T17:30:04.622Z,13.2
2017-10-15T17:45:03.235Z,12.9
2017-10-15T18:00:05.281Z,12.4
2017-10-15T18:15:05.428Z,12.2
2017-10-15T18:30:05.698Z,12.1
2017-10-15T18:45:05.605Z,11.8
2017-10-15T19:00:06.689Z,11.2
2017-10-15T19:15:04.934Z,11.2
2017-10-15T19:30:03.148Z,11.1
2017-10-15T19:45:06.190Z,10.8
2017-10-15T20:00:04.621Z,10.7
2017-10-15T20:15:05.585Z,10.1
2017-10-15T20:30:04.671Z,10.2
2017-10-15T20:45:05.861Z,10.1
2017-10-15T21:00:04.212Z,10
2017-10-15T21:15:04.132Z,9.6
2017-10-15T21:30:04.958Z,9.6
2017-10-15T21:45:03.223Z,9.2
2017-10-15T22:00:05.687Z,9.4
2017-10-15T22:15:04.796Z,8.9
2017-10-15T22:30:06.059Z,8.6
2017-10-15T22:45:04.272Z,8.8
2017-10-15T23:00:06.479Z,8.6
2017-10-15T23:15:05.926Z,8.6
2017-10-15T23:30:04.988Z,7.9
2017-10-15T23:45:02.863Z,8.2
